sensor_id;sensor_type;location;lat;lon;timestamp;temperature;humidity
36292;DHT22;22327;51.208;6.418;2023-08-06T00:01:47;19.60;97.50
36292;DHT22;22327;51.208;6.418;2023-08-06T00:04:48;19.60;97.40
36292;DHT22;22327;51.208;6.418;2023-08-06T00:07:48;19.60;97.40
36292;DHT22;22327;51.208;6.418;2023-08-06T00:10:49;19.40;97.60
36292;DHT22;22327;51.208;6.418;2023-08-06T00:13:50;19.40;97.90
36292;DHT22;22327;51.208;6.418;2023-08-06T00:16:50;19.30;97.90
36292;DHT22;22327;51.208;6.418;2023-08-06T00:19:51;19.30;98.00
36292;DHT22;22327;51.208;6.418;2023-08-06T00:22:51;19.30;98.10
36292;DHT22;22327;51.208;6.418;2023-08-06T00:25:52;19.20;98.20
36292;DHT22;22327;51.208;6.418;2023-08-06T00:28:52;19.10;98.30
36292;DHT22;22327;51.208;6.418;2023-08-06T00:31:53;19.10;98.40
36292;DHT22;22327;51.208;6.418;2023-08-06T00:34:53;19.10;98.20
36292;DHT22;22327;51.208;6.418;2023-08-06T00:37:54;19.20;98.30
36292;DHT22;22327;51.208;6.418;2023-08-06T00:40:54;19.10;98.40
36292;DHT22;22327;51.208;6.418;2023-08-06T00:43:55;19.10;98.70
36292;DHT22;22327;51.208;6.418;2023-08-06T00:46:55;19.10;98.90
36292;DHT22;22327;51.208;6.418;2023-08-06T00:49:56;19.10;99.10
36292;DHT22;22327;51.208;6.418;2023-08-06T00:52:57;19.20;99.20
36292;DHT22;22327;51.208;6.418;2023-08-06T00:55:58;19.20;99.10
36292;DHT22;22327;51.208;6.418;2023-08-06T00:58:59;19.30;99.10
36292;DHT22;22327;51.208;6.418;2023-08-06T01:02:01;19.30;99.20
36292;DHT22;22327;51.208;6.418;2023-08-06T01:05:01;19.50;99.10
36292;DHT22;22327;51.208;6.418;2023-08-06T01:11:32;19.70;98.80
36292;DHT22;22327;51.208;6.418;2023-08-06T01:17:48;19.70;98.80
36292;DHT22;22327;51.208;6.418;2023-08-06T01:20:49;19.80;98.60
36292;DHT22;22327;51.208;6.418;2023-08-06T01:23:52;19.90;98.40
36292;DHT22;22327;51.208;6.418;2023-08-06T01:27:13;19.80;98.20
36292;DHT22;22327;51.208;6.418;2023-08-06T01:30:17;19.90;98.40
36292;DHT22;22327;51.208;6.418;2023-08-06T01:33:21;19.90;98.40
36292;DHT22;22327;51.208;6.418;2023-08-06T01:36:23;19.90;98.40
36292;DHT22;22327;51.208;6.418;2023-08-06T01:39:24;19.90;98.40
36292;DHT22;22327;51.208;6.418;2023-08-06T01:42:24;19.90;98.30
36292;DHT22;22327;51.208;6.418;2023-08-06T01:45:25;19.80;98.20
36292;DHT22;22327;51.208;6.418;2023-08-06T01:48:25;19.70;98.30
36292;DHT22;22327;51.208;6.418;2023-08-06T01:51:26;19.70;98.50
36292;DHT22;22327;51.208;6.418;2023-08-06T01:54:26;19.60;98.60
36292;DHT22;22327;51.208;6.418;2023-08-06T01:57:28;19.70;98.70
36292;DHT22;22327;51.208;6.418;2023-08-06T02:00:28;19.70;98.70
36292;DHT22;22327;51.208;6.418;2023-08-06T02:03:29;19.80;98.70
36292;DHT22;22327;51.208;6.418;2023-08-06T02:06:30;19.90;98.60
36292;DHT22;22327;51.208;6.418;2023-08-06T02:09:30;19.90;98.60
36292;DHT22;22327;51.208;6.418;2023-08-06T02:12:31;19.90;98.40
36292;DHT22;22327;51.208;6.418;2023-08-06T02:15:31;19.80;98.70
36292;DHT22;22327;51.208;6.418;2023-08-06T02:18:32;19.70;98.90
36292;DHT22;22327;51.208;6.418;2023-08-06T02:21:32;19.80;99.20
36292;DHT22;22327;51.208;6.418;2023-08-06T02:24:33;19.90;99.10
36292;DHT22;22327;51.208;6.418;2023-08-06T02:27:34;19.90;99.00
36292;DHT22;22327;51.208;6.418;2023-08-06T02:30:34;19.90;99.00
36292;DHT22;22327;51.208;6.418;2023-08-06T02:33:35;20.00;99.00
36292;DHT22;22327;51.208;6.418;2023-08-06T02:36:35;20.00;98.90
36292;DHT22;22327;51.208;6.418;2023-08-06T02:39:36;20.00;98.80
36292;DHT22;22327;51.208;6.418;2023-08-06T02:42:39;20.00;98.90
36292;DHT22;22327;51.208;6.418;2023-08-06T02:45:40;19.90;98.80
36292;DHT22;22327;51.208;6.418;2023-08-06T02:48:40;19.90;98.90
36292;DHT22;22327;51.208;6.418;2023-08-06T02:51:41;19.90;99.00
36292;DHT22;22327;51.208;6.418;2023-08-06T02:54:42;19.80;99.00
36292;DHT22;22327;51.208;6.418;2023-08-06T02:57:42;19.80;99.10
36292;DHT22;22327;51.208;6.418;2023-08-06T03:00:46;19.90;99.20
36292;DHT22;22327;51.208;6.418;2023-08-06T03:03:47;19.90;99.20
36292;DHT22;22327;51.208;6.418;2023-08-06T03:06:49;19.90;99.20
36292;DHT22;22327;51.208;6.418;2023-08-06T03:09:50;20.00;99.10
36292;DHT22;22327;51.208;6.418;2023-08-06T03:12:51;20.00;99.10
36292;DHT22;22327;51.208;6.418;2023-08-06T03:15:59;19.90;99.00
36292;DHT22;22327;51.208;6.418;2023-08-06T03:18:59;19.90;99.00
36292;DHT22;22327;51.208;6.418;2023-08-06T03:22:00;19.90;98.90
36292;DHT22;22327;51.208;6.418;2023-08-06T03:25:00;19.80;98.90
36292;DHT22;22327;51.208;6.418;2023-08-06T03:28:01;19.70;99.00
36292;DHT22;22327;51.208;6.418;2023-08-06T03:31:02;19.60;99.00
36292;DHT22;22327;51.208;6.418;2023-08-06T03:34:03;19.60;99.10
36292;DHT22;22327;51.208;6.418;2023-08-06T03:37:04;19.60;99.10
36292;DHT22;22327;51.208;6.418;2023-08-06T03:40:05;19.60;99.10
36292;DHT22;22327;51.208;6.418;2023-08-06T03:43:05;19.50;99.20
36292;DHT22;22327;51.208;6.418;2023-08-06T03:46:06;19.50;99.30
36292;DHT22;22327;51.208;6.418;2023-08-06T03:49:06;19.40;99.30
36292;DHT22;22327;51.208;6.418;2023-08-06T03:52:07;19.40;99.40
36292;DHT22;22327;51.208;6.418;2023-08-06T03:55:08;19.50;99.60
36292;DHT22;22327;51.208;6.418;2023-08-06T03:58:08;19.40;99.60
36292;DHT22;22327;51.208;6.418;2023-08-06T04:01:09;19.40;99.90
36292;DHT22;22327;51.208;6.418;2023-08-06T04:04:09;19.30;99.90
36292;DHT22;22327;51.208;6.418;2023-08-06T04:07:10;19.30;99.90
36292;DHT22;22327;51.208;6.418;2023-08-06T04:10:10;19.30;99.90
36292;DHT22;22327;51.208;6.418;2023-08-06T04:13:11;19.30;99.90
36292;DHT22;22327;51.208;6.418;2023-08-06T04:16:11;19.40;99.90
36292;DHT22;22327;51.208;6.418;2023-08-06T04:19:12;19.40;99.90
36292;DHT22;22327;51.208;6.418;2023-08-06T04:22:13;19.50;99.90
36292;DHT22;22327;51.208;6.418;2023-08-06T04:25:14;19.60;99.90
36292;DHT22;22327;51.208;6.418;2023-08-06T04:28:14;19.50;99.90
36292;DHT22;22327;51.208;6.418;2023-08-06T04:31:15;19.60;99.90
36292;DHT22;22327;51.208;6.418;2023-08-06T04:34:15;19.70;99.90
36292;DHT22;22327;51.208;6.418;2023-08-06T04:37:16;19.70;99.90
36292;DHT22;22327;51.208;6.418;2023-08-06T04:40:16;19.80;99.90
36292;DHT22;22327;51.208;6.418;2023-08-06T04:43:17;19.90;99.90
36292;DHT22;22327;51.208;6.418;2023-08-06T04:46:17;19.90;99.90
36292;DHT22;22327;51.208;6.418;2023-08-06T04:49:20;19.90;99.80
36292;DHT22;22327;51.208;6.418;2023-08-06T04:52:20;19.90;99.80
36292;DHT22;22327;51.208;6.418;2023-08-06T04:55:21;19.90;99.80
36292;DHT22;22327;51.208;6.418;2023-08-06T04:58:21;20.00;99.80
36292;DHT22;22327;51.208;6.418;2023-08-06T05:01:22;20.00;99.70
36292;DHT22;22327;51.208;6.418;2023-08-06T05:04:22;20.10;99.70
36292;DHT22;22327;51.208;6.418;2023-08-06T05:07:23;20.20;99.80
36292;DHT22;22327;51.208;6.418;2023-08-06T05:10:27;20.30;99.70
36292;DHT22;22327;51.208;6.418;2023-08-06T05:13:27;20.40;99.70
36292;DHT22;22327;51.208;6.418;2023-08-06T05:16:28;20.40;99.70
36292;DHT22;22327;51.208;6.418;2023-08-06T05:19:28;20.50;99.70
36292;DHT22;22327;51.208;6.418;2023-08-06T05:22:29;20.60;99.50
36292;DHT22;22327;51.208;6.418;2023-08-06T05:25:30;20.60;99.30
36292;DHT22;22327;51.208;6.418;2023-08-06T05:28:30;20.60;99.30
36292;DHT22;22327;51.208;6.418;2023-08-06T05:31:31;20.60;99.10
36292;DHT22;22327;51.208;6.418;2023-08-06T05:34:31;20.70;99.10
36292;DHT22;22327;51.208;6.418;2023-08-06T05:37:32;20.80;99.20
36292;DHT22;22327;51.208;6.418;2023-08-06T05:40:34;20.90;98.90
36292;DHT22;22327;51.208;6.418;2023-08-06T05:43:34;20.90;99.10
36292;DHT22;22327;51.208;6.418;2023-08-06T05:46:35;20.90;98.90
36292;DHT22;22327;51.208;6.418;2023-08-06T05:49:35;20.90;98.90
36292;DHT22;22327;51.208;6.418;2023-08-06T05:52:36;20.90;99.00
36292;DHT22;22327;51.208;6.418;2023-08-06T05:55:36;20.90;99.20
36292;DHT22;22327;51.208;6.418;2023-08-06T05:58:42;21.00;99.30
36292;DHT22;22327;51.208;6.418;2023-08-06T06:01:43;21.00;99.20
36292;DHT22;22327;51.208;6.418;2023-08-06T06:04:43;21.20;99.10
36292;DHT22;22327;51.208;6.418;2023-08-06T06:07:44;21.30;98.90
36292;DHT22;22327;51.208;6.418;2023-08-06T06:10:44;21.30;98.60
36292;DHT22;22327;51.208;6.418;2023-08-06T06:13:45;21.40;98.40
36292;DHT22;22327;51.208;6.418;2023-08-06T06:16:46;21.40;98.10
36292;DHT22;22327;51.208;6.418;2023-08-06T06:19:46;21.40;98.20
36292;DHT22;22327;51.208;6.418;2023-08-06T06:22:47;21.40;98.10
36292;DHT22;22327;51.208;6.418;2023-08-06T06:25:49;21.40;97.50
36292;DHT22;22327;51.208;6.418;2023-08-06T06:28:51;21.50;97.70
36292;DHT22;22327;51.208;6.418;2023-08-06T06:31:52;21.50;97.60
36292;DHT22;22327;51.208;6.418;2023-08-06T06:34:54;21.50;97.50
36292;DHT22;22327;51.208;6.418;2023-08-06T06:37:54;21.60;97.10
36292;DHT22;22327;51.208;6.418;2023-08-06T06:40:56;21.70;97.60
36292;DHT22;22327;51.208;6.418;2023-08-06T06:43:56;21.90;97.20
36292;DHT22;22327;51.208;6.418;2023-08-06T06:46:57;22.00;97.00
36292;DHT22;22327;51.208;6.418;2023-08-06T06:49:57;22.20;96.80
36292;DHT22;22327;51.208;6.418;2023-08-06T06:52:58;22.40;96.30
36292;DHT22;22327;51.208;6.418;2023-08-06T06:56:03;22.50;96.00
36292;DHT22;22327;51.208;6.418;2023-08-06T06:59:04;22.80;95.90
36292;DHT22;22327;51.208;6.418;2023-08-06T07:02:05;22.90;95.50
36292;DHT22;22327;51.208;6.418;2023-08-06T07:05:05;23.10;95.30
36292;DHT22;22327;51.208;6.418;2023-08-06T07:08:08;23.30;94.80
36292;DHT22;22327;51.208;6.418;2023-08-06T07:11:09;23.50;94.00
36292;DHT22;22327;51.208;6.418;2023-08-06T07:14:10;23.80;94.10
36292;DHT22;22327;51.208;6.418;2023-08-06T07:17:10;23.90;93.30
36292;DHT22;22327;51.208;6.418;2023-08-06T07:20:14;24.10;93.40
36292;DHT22;22327;51.208;6.418;2023-08-06T07:23:14;24.30;92.80
36292;DHT22;22327;51.208;6.418;2023-08-06T07:26:16;24.40;92.00
36292;DHT22;22327;51.208;6.418;2023-08-06T07:29:16;24.40;91.70
36292;DHT22;22327;51.208;6.418;2023-08-06T07:32:21;24.40;91.60
36292;DHT22;22327;51.208;6.418;2023-08-06T07:35:21;24.30;91.50
36292;DHT22;22327;51.208;6.418;2023-08-06T07:38:22;24.20;91.40
36292;DHT22;22327;51.208;6.418;2023-08-06T07:41:23;24.00;92.00
36292;DHT22;22327;51.208;6.418;2023-08-06T07:44:24;23.80;92.20
36292;DHT22;22327;51.208;6.418;2023-08-06T07:47:25;23.60;92.60
36292;DHT22;22327;51.208;6.418;2023-08-06T07:50:25;23.50;93.20
36292;DHT22;22327;51.208;6.418;2023-08-06T07:53:26;23.40;93.60
36292;DHT22;22327;51.208;6.418;2023-08-06T07:56:28;23.30;93.80
36292;DHT22;22327;51.208;6.418;2023-08-06T07:59:28;23.30;94.50
36292;DHT22;22327;51.208;6.418;2023-08-06T08:02:29;23.30;94.30
36292;DHT22;22327;51.208;6.418;2023-08-06T08:05:30;23.40;94.80
36292;DHT22;22327;51.208;6.418;2023-08-06T08:08:31;23.70;94.70
36292;DHT22;22327;51.208;6.418;2023-08-06T08:11:31;24.10;94.30
36292;DHT22;22327;51.208;6.418;2023-08-06T08:14:32;24.60;93.00
36292;DHT22;22327;51.208;6.418;2023-08-06T08:17:38;25.00;92.70
36292;DHT22;22327;51.208;6.418;2023-08-06T08:20:39;25.60;92.60
36292;DHT22;22327;51.208;6.418;2023-08-06T08:23:39;26.40;90.70
36292;DHT22;22327;51.208;6.418;2023-08-06T08:26:42;27.00;86.00
36292;DHT22;22327;51.208;6.418;2023-08-06T08:29:42;27.30;85.60
36292;DHT22;22327;51.208;6.418;2023-08-06T08:32:43;27.40;83.40
36292;DHT22;22327;51.208;6.418;2023-08-06T08:35:45;27.40;83.00
36292;DHT22;22327;51.208;6.418;2023-08-06T08:38:47;27.10;82.50
36292;DHT22;22327;51.208;6.418;2023-08-06T08:41:47;26.60;81.90
36292;DHT22;22327;51.208;6.418;2023-08-06T08:44:48;25.90;82.80
36292;DHT22;22327;51.208;6.418;2023-08-06T08:47:48;25.20;85.30
36292;DHT22;22327;51.208;6.418;2023-08-06T08:50:49;24.50;88.90
36292;DHT22;22327;51.208;6.418;2023-08-06T08:53:53;23.90;90.40
36292;DHT22;22327;51.208;6.418;2023-08-06T08:56:56;23.50;91.90
36292;DHT22;22327;51.208;6.418;2023-08-06T08:59:57;23.00;92.60
36292;DHT22;22327;51.208;6.418;2023-08-06T09:02:58;22.70;93.50
36292;DHT22;22327;51.208;6.418;2023-08-06T09:06:00;22.30;94.50
36292;DHT22;22327;51.208;6.418;2023-08-06T09:09:08;21.80;95.30
36292;DHT22;22327;51.208;6.418;2023-08-06T09:12:14;21.50;96.10
36292;DHT22;22327;51.208;6.418;2023-08-06T09:15:14;21.30;97.10
36292;DHT22;22327;51.208;6.418;2023-08-06T09:18:21;21.10;97.70
36292;DHT22;22327;51.208;6.418;2023-08-06T09:21:24;21.20;98.30
36292;DHT22;22327;51.208;6.418;2023-08-06T09:24:28;21.30;98.80
36292;DHT22;22327;51.208;6.418;2023-08-06T09:27:29;21.50;98.80
36292;DHT22;22327;51.208;6.418;2023-08-06T09:30:33;22.00;98.50
36292;DHT22;22327;51.208;6.418;2023-08-06T09:33:36;22.70;96.60
36292;DHT22;22327;51.208;6.418;2023-08-06T09:36:42;23.00;95.20
36292;DHT22;22327;51.208;6.418;2023-08-06T09:39:42;22.60;94.30
36292;DHT22;22327;51.208;6.418;2023-08-06T09:42:43;22.10;95.20
36292;DHT22;22327;51.208;6.418;2023-08-06T09:45:45;21.80;95.80
36292;DHT22;22327;51.208;6.418;2023-08-06T09:48:46;21.50;96.30
36292;DHT22;22327;51.208;6.418;2023-08-06T09:51:47;21.30;97.00
36292;DHT22;22327;51.208;6.418;2023-08-06T09:54:51;21.30;97.10
36292;DHT22;22327;51.208;6.418;2023-08-06T09:57:53;21.30;96.80
36292;DHT22;22327;51.208;6.418;2023-08-06T10:00:54;21.20;97.10
36292;DHT22;22327;51.208;6.418;2023-08-06T10:03:55;21.20;96.90
36292;DHT22;22327;51.208;6.418;2023-08-06T10:06:58;21.10;96.70
36292;DHT22;22327;51.208;6.418;2023-08-06T10:09:59;21.00;97.20
36292;DHT22;22327;51.208;6.418;2023-08-06T10:13:01;20.80;97.80
36292;DHT22;22327;51.208;6.418;2023-08-06T10:16:03;20.50;97.90
36292;DHT22;22327;51.208;6.418;2023-08-06T10:19:06;20.20;98.60
36292;DHT22;22327;51.208;6.418;2023-08-06T10:22:13;19.90;99.30
36292;DHT22;22327;51.208;6.418;2023-08-06T10:25:17;19.70;99.80
36292;DHT22;22327;51.208;6.418;2023-08-06T10:28:19;19.60;99.90
36292;DHT22;22327;51.208;6.418;2023-08-06T10:31:19;19.40;99.90
36292;DHT22;22327;51.208;6.418;2023-08-06T10:34:20;19.30;99.90
36292;DHT22;22327;51.208;6.418;2023-08-06T10:37:21;19.20;99.90
36292;DHT22;22327;51.208;6.418;2023-08-06T10:40:22;19.10;99.90
36292;DHT22;22327;51.208;6.418;2023-08-06T10:43:32;19.10;99.90
36292;DHT22;22327;51.208;6.418;2023-08-06T10:46:33;18.90;99.90
36292;DHT22;22327;51.208;6.418;2023-08-06T10:49:33;18.80;99.90
36292;DHT22;22327;51.208;6.418;2023-08-06T10:52:34;18.70;99.90
36292;DHT22;22327;51.208;6.418;2023-08-06T10:55:35;18.70;99.90
36292;DHT22;22327;51.208;6.418;2023-08-06T10:58:35;18.80;99.90
36292;DHT22;22327;51.208;6.418;2023-08-06T11:01:36;18.80;99.90
36292;DHT22;22327;51.208;6.418;2023-08-06T11:04:38;18.80;99.90
36292;DHT22;22327;51.208;6.418;2023-08-06T11:07:38;18.70;99.90
36292;DHT22;22327;51.208;6.418;2023-08-06T11:10:39;18.70;99.90
36292;DHT22;22327;51.208;6.418;2023-08-06T11:13:44;18.60;99.90
36292;DHT22;22327;51.208;6.418;2023-08-06T11:16:46;18.60;99.90
36292;DHT22;22327;51.208;6.418;2023-08-06T11:19:47;18.60;99.90
36292;DHT22;22327;51.208;6.418;2023-08-06T11:22:47;18.60;99.90
36292;DHT22;22327;51.208;6.418;2023-08-06T11:25:48;18.60;99.90
36292;DHT22;22327;51.208;6.418;2023-08-06T11:28:49;18.70;99.90
36292;DHT22;22327;51.208;6.418;2023-08-06T11:31:50;18.80;99.90
36292;DHT22;22327;51.208;6.418;2023-08-06T11:34:50;18.90;99.90
36292;DHT22;22327;51.208;6.418;2023-08-06T11:37:51;19.00;99.90
36292;DHT22;22327;51.208;6.418;2023-08-06T11:40:51;19.20;99.90
36292;DHT22;22327;51.208;6.418;2023-08-06T11:43:52;19.40;99.90
36292;DHT22;22327;51.208;6.418;2023-08-06T11:46:54;19.60;99.90
36292;DHT22;22327;51.208;6.418;2023-08-06T11:49:56;19.80;99.90
36292;DHT22;22327;51.208;6.418;2023-08-06T11:52:58;19.90;99.90
36292;DHT22;22327;51.208;6.418;2023-08-06T11:56:00;20.10;99.90
36292;DHT22;22327;51.208;6.418;2023-08-06T11:59:01;20.20;99.90
36292;DHT22;22327;51.208;6.418;2023-08-06T12:02:08;20.20;99.90
36292;DHT22;22327;51.208;6.418;2023-08-06T12:05:15;20.20;99.90
36292;DHT22;22327;51.208;6.418;2023-08-06T12:08:16;20.20;99.90
36292;DHT22;22327;51.208;6.418;2023-08-06T12:11:16;20.30;99.90
36292;DHT22;22327;51.208;6.418;2023-08-06T12:14:17;20.40;99.90
36292;DHT22;22327;51.208;6.418;2023-08-06T12:17:17;20.50;99.90
36292;DHT22;22327;51.208;6.418;2023-08-06T12:20:18;20.70;99.90
36292;DHT22;22327;51.208;6.418;2023-08-06T12:23:18;20.80;99.80
36292;DHT22;22327;51.208;6.418;2023-08-06T12:26:19;20.80;99.30
36292;DHT22;22327;51.208;6.418;2023-08-06T12:29:20;20.90;99.30
36292;DHT22;22327;51.208;6.418;2023-08-06T12:32:20;20.90;98.90
36292;DHT22;22327;51.208;6.418;2023-08-06T12:35:22;20.80;98.80
36292;DHT22;22327;51.208;6.418;2023-08-06T12:38:22;20.90;99.70
36292;DHT22;22327;51.208;6.418;2023-08-06T12:41:23;20.90;97.70
36292;DHT22;22327;51.208;6.418;2023-08-06T12:44:24;20.80;97.80
36292;DHT22;22327;51.208;6.418;2023-08-06T12:47:24;20.90;99.20
36292;DHT22;22327;51.208;6.418;2023-08-06T12:50:25;21.00;98.80
36292;DHT22;22327;51.208;6.418;2023-08-06T12:53:26;21.20;98.30
36292;DHT22;22327;51.208;6.418;2023-08-06T12:56:26;21.30;98.10
36292;DHT22;22327;51.208;6.418;2023-08-06T12:59:27;21.30;98.00
36292;DHT22;22327;51.208;6.418;2023-08-06T13:02:27;21.40;98.60
36292;DHT22;22327;51.208;6.418;2023-08-06T13:05:30;21.40;97.70
36292;DHT22;22327;51.208;6.418;2023-08-06T13:08:30;21.30;97.40
36292;DHT22;22327;51.208;6.418;2023-08-06T13:11:31;21.20;97.30
36292;DHT22;22327;51.208;6.418;2023-08-06T13:14:31;21.20;98.10
36292;DHT22;22327;51.208;6.418;2023-08-06T13:17:32;21.10;98.20
36292;DHT22;22327;51.208;6.418;2023-08-06T13:20:33;21.20;99.50
36292;DHT22;22327;51.208;6.418;2023-08-06T13:23:33;21.40;99.20
36292;DHT22;22327;51.208;6.418;2023-08-06T13:26:34;21.60;99.20
36292;DHT22;22327;51.208;6.418;2023-08-06T13:29:35;21.80;98.80
36292;DHT22;22327;51.208;6.418;2023-08-06T13:32:35;21.90;98.20
36292;DHT22;22327;51.208;6.418;2023-08-06T13:35:37;22.10;98.60
36292;DHT22;22327;51.208;6.418;2023-08-06T13:38:38;22.20;98.00
36292;DHT22;22327;51.208;6.418;2023-08-06T13:41:39;22.30;98.40
36292;DHT22;22327;51.208;6.418;2023-08-06T13:44:39;22.40;97.70
36292;DHT22;22327;51.208;6.418;2023-08-06T13:47:41;22.50;97.80
36292;DHT22;22327;51.208;6.418;2023-08-06T13:50:41;22.70;97.40
36292;DHT22;22327;51.208;6.418;2023-08-06T13:53:42;22.70;95.90
36292;DHT22;22327;51.208;6.418;2023-08-06T13:56:42;22.70;96.40
36292;DHT22;22327;51.208;6.418;2023-08-06T13:59:43;22.80;95.80
36292;DHT22;22327;51.208;6.418;2023-08-06T14:02:44;22.80;96.40
36292;DHT22;22327;51.208;6.418;2023-08-06T14:05:44;22.70;95.60
36292;DHT22;22327;51.208;6.418;2023-08-06T14:08:45;22.40;96.00
36292;DHT22;22327;51.208;6.418;2023-08-06T14:11:45;21.80;97.00
36292;DHT22;22327;51.208;6.418;2023-08-06T14:14:46;21.30;98.30
36292;DHT22;22327;51.208;6.418;2023-08-06T14:17:47;20.90;99.20
36292;DHT22;22327;51.208;6.418;2023-08-06T14:20:47;20.60;99.80
36292;DHT22;22327;51.208;6.418;2023-08-06T14:23:48;20.40;99.90
36292;DHT22;22327;51.208;6.418;2023-08-06T14:26:48;20.30;99.90
36292;DHT22;22327;51.208;6.418;2023-08-06T14:29:49;20.20;99.90
36292;DHT22;22327;51.208;6.418;2023-08-06T14:32:49;20.00;99.90
36292;DHT22;22327;51.208;6.418;2023-08-06T14:35:50;19.90;99.90
36292;DHT22;22327;51.208;6.418;2023-08-06T14:38:51;19.90;99.90
36292;DHT22;22327;51.208;6.418;2023-08-06T14:41:51;19.80;99.90
36292;DHT22;22327;51.208;6.418;2023-08-06T14:44:52;19.80;99.90
36292;DHT22;22327;51.208;6.418;2023-08-06T14:47:52;19.90;99.90
36292;DHT22;22327;51.208;6.418;2023-08-06T14:50:54;19.90;99.90
36292;DHT22;22327;51.208;6.418;2023-08-06T14:53:54;19.90;99.90
36292;DHT22;22327;51.208;6.418;2023-08-06T14:56:55;19.90;99.90
36292;DHT22;22327;51.208;6.418;2023-08-06T14:59:55;20.00;99.90
36292;DHT22;22327;51.208;6.418;2023-08-06T15:02:56;20.10;99.90
36292;DHT22;22327;51.208;6.418;2023-08-06T15:05:56;20.20;99.90
36292;DHT22;22327;51.208;6.418;2023-08-06T15:08:57;20.40;99.90
36292;DHT22;22327;51.208;6.418;2023-08-06T15:12:00;20.50;99.90
36292;DHT22;22327;51.208;6.418;2023-08-06T15:15:01;20.50;99.90
36292;DHT22;22327;51.208;6.418;2023-08-06T15:18:02;20.60;99.90
36292;DHT22;22327;51.208;6.418;2023-08-06T15:21:03;20.60;99.90
36292;DHT22;22327;51.208;6.418;2023-08-06T15:24:03;20.70;99.90
36292;DHT22;22327;51.208;6.418;2023-08-06T15:27:04;20.60;99.90
36292;DHT22;22327;51.208;6.418;2023-08-06T15:30:05;20.60;99.90
36292;DHT22;22327;51.208;6.418;2023-08-06T15:33:06;20.60;99.90
36292;DHT22;22327;51.208;6.418;2023-08-06T15:36:06;20.50;99.90
36292;DHT22;22327;51.208;6.418;2023-08-06T15:39:07;20.40;99.90
36292;DHT22;22327;51.208;6.418;2023-08-06T15:42:07;20.30;99.90
36292;DHT22;22327;51.208;6.418;2023-08-06T15:45:08;20.10;99.90
36292;DHT22;22327;51.208;6.418;2023-08-06T15:48:09;20.00;99.90
36292;DHT22;22327;51.208;6.418;2023-08-06T15:51:09;19.90;99.90
36292;DHT22;22327;51.208;6.418;2023-08-06T15:54:10;19.80;99.90
36292;DHT22;22327;51.208;6.418;2023-08-06T15:57:11;19.70;99.90
36292;DHT22;22327;51.208;6.418;2023-08-06T16:00:12;19.60;99.90
36292;DHT22;22327;51.208;6.418;2023-08-06T16:03:12;19.60;99.90
36292;DHT22;22327;51.208;6.418;2023-08-06T16:06:13;19.50;99.90
36292;DHT22;22327;51.208;6.418;2023-08-06T16:09:13;19.50;99.90
36292;DHT22;22327;51.208;6.418;2023-08-06T16:12:16;19.60;99.90
36292;DHT22;22327;51.208;6.418;2023-08-06T16:15:18;19.70;99.90
36292;DHT22;22327;51.208;6.418;2023-08-06T16:18:20;19.70;99.90
36292;DHT22;22327;51.208;6.418;2023-08-06T16:21:20;19.70;99.90
36292;DHT22;22327;51.208;6.418;2023-08-06T16:24:21;19.60;99.90
36292;DHT22;22327;51.208;6.418;2023-08-06T16:27:21;19.40;99.90
36292;DHT22;22327;51.208;6.418;2023-08-06T16:30:22;19.30;99.90
36292;DHT22;22327;51.208;6.418;2023-08-06T16:33:22;19.30;99.90
36292;DHT22;22327;51.208;6.418;2023-08-06T16:36:23;19.30;99.90
36292;DHT22;22327;51.208;6.418;2023-08-06T16:39:24;19.20;99.90
36292;DHT22;22327;51.208;6.418;2023-08-06T16:42:26;19.20;99.90
36292;DHT22;22327;51.208;6.418;2023-08-06T16:45:27;19.20;99.90
36292;DHT22;22327;51.208;6.418;2023-08-06T16:48:27;19.20;99.90
36292;DHT22;22327;51.208;6.418;2023-08-06T16:51:30;19.10;99.90
36292;DHT22;22327;51.208;6.418;2023-08-06T16:54:30;19.10;99.90
36292;DHT22;22327;51.208;6.418;2023-08-06T16:57:31;19.10;99.90
36292;DHT22;22327;51.208;6.418;2023-08-06T17:00:31;19.10;99.90
36292;DHT22;22327;51.208;6.418;2023-08-06T17:03:32;19.10;99.90
36292;DHT22;22327;51.208;6.418;2023-08-06T17:06:33;19.00;99.90
36292;DHT22;22327;51.208;6.418;2023-08-06T17:09:34;19.00;99.90
36292;DHT22;22327;51.208;6.418;2023-08-06T17:12:34;18.90;99.90
36292;DHT22;22327;51.208;6.418;2023-08-06T17:15:34;18.80;99.90
36292;DHT22;22327;51.208;6.418;2023-08-06T17:18:35;18.80;99.90
36292;DHT22;22327;51.208;6.418;2023-08-06T17:21:36;18.80;99.90
36292;DHT22;22327;51.208;6.418;2023-08-06T17:24:36;18.70;99.90
36292;DHT22;22327;51.208;6.418;2023-08-06T17:27:37;18.60;99.90
36292;DHT22;22327;51.208;6.418;2023-08-06T17:30:41;18.60;99.90
36292;DHT22;22327;51.208;6.418;2023-08-06T17:33:43;18.50;99.90
36292;DHT22;22327;51.208;6.418;2023-08-06T17:37:11;18.50;99.90
36292;DHT22;22327;51.208;6.418;2023-08-06T17:40:12;18.50;99.90
36292;DHT22;22327;51.208;6.418;2023-08-06T17:43:12;18.40;99.90
36292;DHT22;22327;51.208;6.418;2023-08-06T17:46:13;18.30;99.90
36292;DHT22;22327;51.208;6.418;2023-08-06T17:49:13;18.30;99.90
36292;DHT22;22327;51.208;6.418;2023-08-06T17:52:14;18.20;99.90
36292;DHT22;22327;51.208;6.418;2023-08-06T17:55:14;18.20;99.90
36292;DHT22;22327;51.208;6.418;2023-08-06T17:58:15;18.30;99.90
36292;DHT22;22327;51.208;6.418;2023-08-06T18:01:15;18.20;99.90
36292;DHT22;22327;51.208;6.418;2023-08-06T18:04:16;18.30;99.90
36292;DHT22;22327;51.208;6.418;2023-08-06T18:07:17;18.20;99.90
36292;DHT22;22327;51.208;6.418;2023-08-06T18:10:17;18.10;99.90
36292;DHT22;22327;51.208;6.418;2023-08-06T18:13:18;18.10;99.90
36292;DHT22;22327;51.208;6.418;2023-08-06T18:16:19;18.00;99.90
36292;DHT22;22327;51.208;6.418;2023-08-06T18:19:20;18.00;99.90
36292;DHT22;22327;51.208;6.418;2023-08-06T18:22:20;17.90;99.90
36292;DHT22;22327;51.208;6.418;2023-08-06T18:25:21;17.90;99.90
36292;DHT22;22327;51.208;6.418;2023-08-06T18:28:22;17.80;99.90
36292;DHT22;22327;51.208;6.418;2023-08-06T18:31:23;17.80;99.90
36292;DHT22;22327;51.208;6.418;2023-08-06T18:34:23;17.80;99.90
36292;DHT22;22327;51.208;6.418;2023-08-06T18:37:24;17.80;99.90
36292;DHT22;22327;51.208;6.418;2023-08-06T18:40:27;17.80;99.90
36292;DHT22;22327;51.208;6.418;2023-08-06T18:43:28;17.80;99.90
36292;DHT22;22327;51.208;6.418;2023-08-06T18:46:28;17.80;99.90
36292;DHT22;22327;51.208;6.418;2023-08-06T18:49:29;17.70;99.90
36292;DHT22;22327;51.208;6.418;2023-08-06T18:52:29;17.70;99.90
36292;DHT22;22327;51.208;6.418;2023-08-06T18:55:30;17.70;99.90
36292;DHT22;22327;51.208;6.418;2023-08-06T18:58:31;17.70;99.90
36292;DHT22;22327;51.208;6.418;2023-08-06T19:01:32;17.60;99.90
36292;DHT22;22327;51.208;6.418;2023-08-06T19:04:33;17.60;99.90
36292;DHT22;22327;51.208;6.418;2023-08-06T19:07:33;17.50;99.90
36292;DHT22;22327;51.208;6.418;2023-08-06T19:10:34;17.50;99.90